createdAt,value
2022-11-19T00:03:52.775Z,11.07
2022-11-19T00:08:55.296Z,10.77
2022-11-19T00:13:56.995Z,9.80
2022-11-19T00:18:58.643Z,12.02
2022-11-19T00:24:00.359Z,10.40
2022-11-19T00:29:02.233Z,10.55
2022-11-19T00:34:04.112Z,11.40
2022-11-19T00:39:06.018Z,11.40
2022-11-19T00:44:07.719Z,11.93
2022-11-19T00:49:09.484Z,11.60
2022-11-19T00:54:11.176Z,11.40
2022-11-19T00:59:13.018Z,10.73
2022-11-19T01:04:14.786Z,10.75
2022-11-19T01:09:16.731Z,11.90
2022-11-19T01:14:18.627Z,13.83
2022-11-19T01:19:20.571Z,12.97
2022-11-19T01:24:22.545Z,11.17
2022-11-19T01:29:24.310Z,10.97
2022-11-19T01:34:26.040Z,13.20
2022-11-19T01:39:27.702Z,12.17
2022-11-19T01:44:56.838Z,13.23
2022-11-19T01:49:59.329Z,12.90
2022-11-19T01:55:01.898Z,12.23
2022-11-19T02:00:04.985Z,13.40
2022-11-19T02:05:07.058Z,14.40
2022-11-19T02:10:09.811Z,12.17
2022-11-19T02:15:39.443Z,13.03
2022-11-19T02:20:55.453Z,11.83
2022-11-19T02:26:30.680Z,13.23
2022-11-19T02:31:51.912Z,13.77
2022-11-19T02:37:10.834Z,12.87
2022-11-19T02:42:17.328Z,13.23
2022-11-19T02:47:23.627Z,14.27
2022-11-19T02:52:25.346Z,14.70
2022-11-19T02:57:27.085Z,14.17
2022-11-19T03:02:54.643Z,14.53
2022-11-19T03:07:56.518Z,13.43
2022-11-19T03:13:33.623Z,12.57
2022-11-19T03:18:44.744Z,12.97
2022-11-19T03:24:05.368Z,12.63
2022-11-19T03:29:12.306Z,15.50
2022-11-19T03:34:18.584Z,16.27
2022-11-19T03:39:21.625Z,15.20
2022-11-19T03:44:23.522Z,15.83
2022-11-19T03:49:31.611Z,15.63
2022-11-19T03:54:33.456Z,16.23
2022-11-19T03:59:35.432Z,15.50
2022-11-19T04:04:37.935Z,15.67
2022-11-19T04:09:40.784Z,15.20
2022-11-19T04:14:42.508Z,14.63
2022-11-19T04:19:44.696Z,16.20
2022-11-19T04:24:46.371Z,15.50
2022-11-19T04:29:48.080Z,14.90
2022-11-19T04:34:49.736Z,13.93
2022-11-19T04:39:51.395Z,15.43
2022-11-19T04:44:53.043Z,17.07
2022-11-19T04:49:54.713Z,15.10
2022-11-19T04:54:56.361Z,17.60
2022-11-19T04:59:57.997Z,13.73
2022-11-19T05:04:59.704Z,15.17
2022-11-19T05:10:01.739Z,15.30
2022-11-19T05:15:04.047Z,16.40
2022-11-19T05:20:06.373Z,14.97
2022-11-19T05:25:08.416Z,14.20
2022-11-19T05:30:10.924Z,14.60
2022-11-19T05:35:12.607Z,15.07
2022-11-19T05:40:14.563Z,15.07
2022-11-19T05:45:16.369Z,15.50
2022-11-19T05:50:18.114Z,14.27
2022-11-19T05:55:20.746Z,16.97
2022-11-19T06:00:22.444Z,16.43
2022-11-19T06:05:24.068Z,18.27
2022-11-19T06:10:25.870Z,14.00
2022-11-19T06:15:27.611Z,14.80
2022-11-19T06:20:30.187Z,14.83
2022-11-19T06:25:32.269Z,16.00
2022-11-19T06:30:33.942Z,12.03
2022-11-19T06:35:35.592Z,14.37
2022-11-19T06:40:37.292Z,15.57
2022-11-19T06:45:39.063Z,16.17
2022-11-19T06:50:40.738Z,12.70
2022-11-19T06:55:45.618Z,13.97
2022-11-19T07:00:47.343Z,14.13
2022-11-19T07:05:50.113Z,15.77
2022-11-19T07:10:51.908Z,16.80
2022-11-19T07:15:53.572Z,16.23
2022-11-19T07:20:55.627Z,16.43
2022-11-19T07:26:03.609Z,15.90
2022-11-19T07:31:06.448Z,17.13
2022-11-19T07:36:14.004Z,15.70
2022-11-19T07:41:38.977Z,16.13
2022-11-19T07:46:41.319Z,14.63
2022-11-19T07:51:43.568Z,16.97
2022-11-19T07:56:45.652Z,18.93
2022-11-19T08:01:47.392Z,18.13
2022-11-19T08:06:49.318Z,15.90
2022-11-19T08:11:51.022Z,18.23
2022-11-19T08:17:11.485Z,18.00
2022-11-19T08:22:13.332Z,16.55
2022-11-19T08:27:15.122Z,16.80
2022-11-19T08:32:16.845Z,15.23
2022-11-19T08:37:18.520Z,19.70
2022-11-19T08:42:38.882Z,17.25
2022-11-19T08:47:40.549Z,20.55
2022-11-19T08:52:42.295Z,16.30
2022-11-19T08:57:43.969Z,20.38
2022-11-19T09:02:46.134Z,18.92
2022-11-19T09:07:47.889Z,19.65
2022-11-19T09:12:49.624Z,16.25
2022-11-19T09:17:52.071Z,17.30
2022-11-19T09:22:53.724Z,18.25
2022-11-19T09:27:55.390Z,17.73
2022-11-19T09:32:59.992Z,14.30
2022-11-19T09:38:01.674Z,16.23
2022-11-19T09:43:15.714Z,16.13
2022-11-19T09:48:31.182Z,14.88
2022-11-19T09:53:39.936Z,15.40
2022-11-19T09:58:45.463Z,13.80
2022-11-19T10:03:53.374Z,13.90
2022-11-19T10:09:02.889Z,15.70
2022-11-19T10:14:21.867Z,18.73
2022-11-19T10:19:26.600Z,13.68
2022-11-19T10:24:36.852Z,31.58
2022-11-19T10:29:40.357Z,18.30
2022-11-19T10:34:42.611Z,14.48
2022-11-19T10:39:51.600Z,19.67
2022-11-19T10:44:58.423Z,14.50
2022-11-19T10:50:00.090Z,13.82
2022-11-19T10:55:31.480Z,16.33
2022-11-19T11:00:34.616Z,14.43
2022-11-19T11:05:58.990Z,15.60
2022-11-19T11:11:01.464Z,15.77
2022-11-19T11:16:12.479Z,13.15
2022-11-19T11:21:34.156Z,14.50
2022-11-19T11:26:37.849Z,12.68
2022-11-19T11:31:40.813Z,14.25
2022-11-19T11:36:43.864Z,17.75
2022-11-19T11:42:06.665Z,30.73
2022-11-19T11:47:15.644Z,17.73
2022-11-19T11:52:21.115Z,14.77
2022-11-19T11:57:25.488Z,17.52
2022-11-19T12:02:33.032Z,14.15
2022-11-19T12:07:34.863Z,14.45
2022-11-19T12:12:43.776Z,13.32
2022-11-19T12:17:58.963Z,19.75
2022-11-19T12:23:51.643Z,13.15
2022-11-19T12:29:07.393Z,12.60
2022-11-19T12:34:22.588Z,13.57
2022-11-19T12:39:35.907Z,11.43
2022-11-19T12:45:05.825Z,12.77
2022-11-19T12:50:48.196Z,12.27
2022-11-19T12:55:56.173Z,11.50
2022-11-19T13:01:16.203Z,13.70
2022-11-19T13:06:28.328Z,14.10
2022-11-19T13:11:43.088Z,11.68
2022-11-19T13:16:45.009Z,14.13
2022-11-19T13:21:53.855Z,10.65
2022-11-19T13:27:00.738Z,9.70
2022-11-19T13:32:10.480Z,10.60
2022-11-19T13:37:31.395Z,8.68
2022-11-19T13:43:17.158Z,11.02
2022-11-19T13:48:25.176Z,10.50
2022-11-19T13:53:41.121Z,11.85
2022-11-19T13:58:47.112Z,20.17
2022-11-19T14:04:17.471Z,8.30
2022-11-19T14:09:33.213Z,9.13
2022-11-19T14:15:27.888Z,9.02
2022-11-19T14:20:49.505Z,8.80
2022-11-19T14:26:09.694Z,11.90
2022-11-19T14:31:11.684Z,9.38
2022-11-19T14:36:25.555Z,9.88
2022-11-19T14:41:35.165Z,10.93
2022-11-19T14:46:44.413Z,9.27
2022-11-19T14:51:53.067Z,10.30
2022-11-19T14:57:31.081Z,9.55
2022-11-19T15:02:40.205Z,11.98
2022-11-19T15:07:43.683Z,13.93
2022-11-19T15:12:48.141Z,19.77
2022-11-19T15:18:02.233Z,18.08
2022-11-19T15:23:30.622Z,15.02
2022-11-19T15:29:06.582Z,32.47
2022-11-19T15:34:17.282Z,32.85
2022-11-19T15:39:33.992Z,27.35
2022-11-19T15:44:45.014Z,30.38
2022-11-19T15:49:47.642Z,35.38
2022-11-19T15:54:49.344Z,24.00
2022-11-19T16:00:01.215Z,26.08
2022-11-19T16:05:03.496Z,21.13
2022-11-19T16:10:07.091Z,24.48
2022-11-19T16:15:44.225Z,22.63
2022-11-19T16:20:51.527Z,21.52
2022-11-19T16:25:53.797Z,17.80
2022-11-19T16:31:03.887Z,16.58
2022-11-19T16:36:14.890Z,15.20
2022-11-19T16:41:37.734Z,17.42
2022-11-19T16:46:39.685Z,45.97
2022-11-19T16:51:50.087Z,20.60
2022-11-19T16:56:51.836Z,20.13
2022-11-19T17:01:59.541Z,25.98
2022-11-19T17:07:01.534Z,22.67
2022-11-19T17:12:18.439Z,16.77
2022-11-19T17:17:41.630Z,18.23
2022-11-19T17:22:43.442Z,14.88
2022-11-19T17:27:51.378Z,23.08
2022-11-19T17:32:56.370Z,17.60
2022-11-19T17:38:13.129Z,15.70
2022-11-19T17:43:37.450Z,20.02
2022-11-19T17:48:43.898Z,19.95
2022-11-19T17:53:46.235Z,20.75
2022-11-19T17:58:48.131Z,23.00
2022-11-19T18:03:49.832Z,16.27
2022-11-19T18:08:51.873Z,17.08
2022-11-19T18:13:55.452Z,18.98
2022-11-19T18:18:57.159Z,21.70
2022-11-19T18:23:58.807Z,23.45
2022-11-19T18:29:00.458Z,19.90
2022-11-19T18:34:02.222Z,17.52
2022-11-19T18:39:03.999Z,17.13
2022-11-19T18:44:25.058Z,15.63
2022-11-19T18:49:27.311Z,18.63
2022-11-19T18:54:29.086Z,18.08
2022-11-19T18:59:30.827Z,20.15
2022-11-19T19:04:32.551Z,22.60
2022-11-19T19:09:34.592Z,22.75
2022-11-19T19:14:36.454Z,27.55
2022-11-19T19:19:39.022Z,26.75
2022-11-19T19:24:40.767Z,21.73
2022-11-19T19:29:42.911Z,27.00
2022-11-19T19:34:44.577Z,24.83
2022-11-19T19:39:46.282Z,23.83
2022-11-19T19:44:47.939Z,25.98
2022-11-19T19:49:49.683Z,21.55
2022-11-19T19:54:51.478Z,22.80
2022-11-19T19:59:53.119Z,20.13
2022-11-19T20:04:54.964Z,26.45
2022-11-19T20:09:56.722Z,25.60
2022-11-19T20:14:58.372Z,20.40
2022-11-19T20:20:00.027Z,22.70
2022-11-19T20:25:01.757Z,21.73
2022-11-19T20:30:05.685Z,23.17
2022-11-19T20:35:07.906Z,20.48
2022-11-19T20:40:10.305Z,21.98
2022-11-19T20:45:12.025Z,23.58
2022-11-19T20:50:13.704Z,21.90
2022-11-19T20:55:15.384Z,23.77
2022-11-19T21:00:17.718Z,21.58
2022-11-19T21:05:19.501Z,25.67
2022-11-19T21:10:21.153Z,27.27
2022-11-19T21:15:22.835Z,25.15
2022-11-19T21:20:24.515Z,24.88
2022-11-19T21:25:26.244Z,25.58
2022-11-19T21:30:27.981Z,26.25
2022-11-19T21:35:29.660Z,24.70
2022-11-19T21:40:31.473Z,23.30
2022-11-19T21:45:33.704Z,25.85
2022-11-19T21:50:38.609Z,27.08
2022-11-19T21:55:43.390Z,26.75
2022-11-19T22:00:46.856Z,25.92
2022-11-19T22:06:03.644Z,24.23
2022-11-19T22:11:27.674Z,29.20
2022-11-19T22:16:30.816Z,28.80
2022-11-19T22:21:33.203Z,26.52
2022-11-19T22:26:34.971Z,26.13
2022-11-19T22:31:36.971Z,23.23
2022-11-19T22:36:38.743Z,27.42
2022-11-19T22:41:40.491Z,26.08
2022-11-19T22:46:42.178Z,28.53
2022-11-19T22:51:43.911Z,26.47
2022-11-19T22:56:45.912Z,23.83
2022-11-19T23:01:47.616Z,27.45
2022-11-19T23:06:49.345Z,24.13
2022-11-19T23:12:09.792Z,28.27
2022-11-19T23:17:11.518Z,25.70
2022-11-19T23:22:13.211Z,26.50
2022-11-19T23:27:20.760Z,24.67
2022-11-19T23:32:23.734Z,25.47
2022-11-19T23:37:25.389Z,23.20
2022-11-19T23:42:27.040Z,24.87
2022-11-19T23:47:28.673Z,26.53
2022-11-19T23:52:30.332Z,26.07
2022-11-19T23:57:31.992Z,23.35
